Time;durP1;ratioP1;P1;durP2;ratioP2;P2;SDS_P1;SDS_P2;PMS_P1;PMS_P2;Temp;Humidity;BMP_temperature;BMP_pressure;BME280_temperature;BME280_humidity;BME280_pressure;Samples;Min_cycle;Max_cycle;Signal;HPM_P1;HPM_P2
2021/10/08 00:04:06;;;;;;;16.00;10.50;;;;;;;5.10;65.64;100962.66;464190;1183;142186;-59
2021/10/08 00:14:12;;;;;;;19.00;10.70;;;;;;;4.94;65.98;100964.34;476828;1190;141977;-57
2021/10/08 00:24:18;;;;;;;14.60;9.30;;;;;;;4.78;66.33;100967.22;477719;1190;141766;-58
2021/10/08 00:34:23;;;;;;;15.40;10.30;;;;;;;4.65;66.76;100972.14;477857;1190;141586;-59
2021/10/08 00:44:32;;;;;;;17.40;11.00;;;;;;;4.54;66.78;100979.08;477122;1190;142263;-60
2021/10/08 00:54:37;;;;;;;16.20;9.60;;;;;;;4.47;66.95;100985.96;477897;1190;142752;-59
2021/10/08 01:04:45;;;;;;;15.90;8.50;;;;;;;4.42;67.19;100985.16;477867;1190;146651;-59
2021/10/08 01:14:50;;;;;;;;;;;;;;;4.36;67.38;100987.52;472123;1190;141098;-58
2021/10/08 01:24:55;;;;;;;12.70;9.50;;;;;;;4.30;67.38;100991.60;469475;1177;130273;-57
2021/10/08 01:35:01;;;;;;;16.60;9.50;;;;;;;4.21;67.38;100997.64;470416;1191;142051;-60
2021/10/08 01:45:09;;;;;;;26.00;11.00;;;;;;;4.12;67.43;100996.91;476946;1191;141642;-59
2021/10/08 01:55:15;;;;;;;14.50;9.60;;;;;;;4.08;67.77;101002.67;477700;1191;143895;-58
2021/10/08 02:05:21;;;;;;;17.90;8.80;;;;;;;4.00;67.37;101000.36;474402;1190;142229;-58
2021/10/08 02:15:27;;;;;;;10.90;8.50;;;;;;;3.96;67.46;101002.32;472142;1191;143834;-59
2021/10/08 02:25:33;;;;;;;15.20;9.00;;;;;;;3.89;67.51;100999.82;474980;1190;144512;-59
2021/10/08 02:35:39;;;;;;;12.90;8.10;;;;;;;3.84;67.36;101012.37;465612;1190;141647;-58
2021/10/08 02:45:44;;;;;;;18.70;8.20;;;;;;;3.76;67.51;101017.30;466333;1190;142548;-61
2021/10/08 02:55:50;;;;;;;22.50;8.80;;;;;;;3.64;67.50;101020.57;470516;1190;141345;-59
2021/10/08 03:05:56;;;;;;;16.80;9.00;;;;;;;3.60;67.64;101029.45;473187;1190;141078;-58
2021/10/08 03:16:02;;;;;;;12.80;8.80;;;;;;;3.54;67.46;101038.20;475586;1191;142276;-58
2021/10/08 03:26:08;;;;;;;14.20;7.60;;;;;;;3.47;67.16;101040.87;475308;1190;142988;-58
2021/10/08 03:36:20;;;;;;;17.10;10.30;;;;;;;3.42;67.47;101046.64;465954;1190;141737;-58
2021/10/08 03:46:28;;;;;;;17.50;9.10;;;;;;;3.31;67.21;101045.88;467634;1190;140749;-58
2021/10/08 03:56:34;;;;;;;19.40;9.20;;;;;;;3.21;67.43;101048.76;476858;1191;141894;-59
2021/10/08 04:06:40;;;;;;;11.20;8.70;;;;;;;3.15;67.51;101051.41;477710;1190;145242;-59
2021/10/08 04:16:46;;;;;;;18.00;8.50;;;;;;;3.11;67.55;101062.35;473151;1190;144830;-58
2021/10/08 04:26:52;;;;;;;16.50;9.30;;;;;;;3.05;67.47;101071.92;460428;1190;141416;-58
2021/10/08 04:36:57;;;;;;;15.90;9.50;;;;;;;2.97;67.40;101075.45;460411;1184;141731;-59
2021/10/08 04:47:04;;;;;;;17.20;10.20;;;;;;;2.84;67.50;101061.38;465322;1190;142417;-59
2021/10/08 04:57:10;;;;;;;18.00;9.30;;;;;;;2.74;67.47;101078.05;476907;1190;142337;-59
2021/10/08 05:07:15;;;;;;;11.30;8.00;;;;;;;2.72;67.66;101082.58;477797;1190;142281;-59
2021/10/08 05:17:22;;;;;;;14.00;8.00;;;;;;;2.78;67.66;101089.78;477000;1190;144712;-59
2021/10/08 05:27:27;;;;;;;21.00;9.00;;;;;;;2.91;67.37;101097.81;470512;1191;142139;-58
2021/10/08 05:37:33;;;;;;;10.80;7.70;;;;;;;3.14;67.06;101100.73;465894;1190;141192;-60
2021/10/08 05:47:39;;;;;;;15.90;8.80;;;;;;;3.77;66.79;101107.86;476355;1192;141435;-59
2021/10/08 05:57:45;;;;;;;12.80;7.40;;;;;;;7.66;63.90;101118.36;477830;1190;142725;-59
2021/10/08 06:07:51;;;;;;;17.60;7.10;;;;;;;12.68;58.20;101130.86;465961;1191;140336;-60
2021/10/08 06:17:56;;;;;;;15.20;7.60;;;;;;;16.16;53.00;101121.40;471605;1190;140903;-59
2021/10/08 06:28:03;;;;;;;11.30;7.40;;;;;;;19.12;48.42;101126.16;477956;1190;195742;-59
2021/10/08 06:38:10;;;;;;;10.80;7.30;;;;;;;21.09;44.33;101128.13;477722;1190;141693;-58
2021/10/08 06:48:15;;;;;;;10.80;6.90;;;;;;;22.98;41.22;101136.98;472335;1190;142014;-61
2021/10/08 06:58:21;;;;;;;14.60;8.20;;;;;;;24.58;38.65;101142.92;477754;1191;141023;-60
2021/10/08 07:08:27;;;;;;;11.70;7.00;;;;;;;26.75;35.95;101148.55;467392;1190;142570;-60
2021/10/08 07:18:35;;;;;;;13.50;6.80;;;;;;;28.09;33.57;101158.09;476876;1191;140745;-59
2021/10/08 07:28:41;;;;;;;14.10;7.30;;;;;;;29.00;31.03;101176.36;477772;1190;141808;-60
2021/10/08 07:38:47;;;;;;;13.20;6.60;;;;;;;29.58;29.70;101193.05;476991;1190;140943;-61
2021/10/08 07:48:53;;;;;;;8.60;5.30;;;;;;;30.18;28.21;101196.80;475651;1190;140872;-60
2021/10/08 07:59:01;;;;;;;9.10;5.20;;;;;;;31.22;27.00;101199.73;465601;1190;140351;-61
2021/10/08 08:09:06;;;;;;;8.20;4.60;;;;;;;32.24;25.61;101203.39;476937;1190;141326;-64
2021/10/08 08:19:13;;;;;;;11.70;5.20;;;;;;;32.58;24.44;101209.19;477858;1190;140647;-63
2021/10/08 08:29:20;;;;;;;11.80;5.60;;;;;;;32.68;23.13;101214.79;474524;1190;141435;-66
2021/10/08 08:39:25;;;;;;;7.80;4.70;;;;;;;31.81;22.83;101220.65;476515;1190;140544;-67
2021/10/08 08:49:31;;;;;;;8.10;4.30;;;;;;;32.53;22.34;101217.48;475209;1190;140827;-65
2021/10/08 08:59:58;;;;;;;10.50;5.00;;;;;;;32.49;21.90;101221.75;461026;1190;20001523;-63
2021/10/08 09:10:13;;;;;;;7.00;5.00;;;;;;;23.92;23.47;101223.86;470781;1190;140788;-64
2021/10/08 09:20:20;;;;;;;13.40;4.90;;;;;;;17.84;27.23;101221.11;476774;1190;140999;-63
2021/10/08 09:30:35;;;;;;;9.80;4.40;;;;;;;15.37;29.92;101235.80;469887;1190;196737;-63
2021/10/08 09:40:45;;;;;;;13.60;4.30;;;;;;;14.00;31.83;101225.70;477834;1190;141950;-63
2021/10/08 09:51:03;;;;;;;12.50;5.10;;;;;;;13.42;33.16;101226.30;471293;1190;147206;-64
2021/10/08 10:01:24;;;;;;;8.60;4.40;;;;;;;12.89;33.85;101224.96;462032;1191;142082;-63
2021/10/08 10:11:31;;;;;;;9.40;4.80;;;;;;;12.26;34.16;101229.10;460136;1190;140295;-63
2021/10/08 10:21:37;;;;;;;12.40;5.00;;;;;;;11.70;35.37;101234.44;462377;1190;141663;-62
2021/10/08 10:31:44;;;;;;;9.10;5.00;;;;;;;11.47;35.55;101232.63;461032;1178;142412;-62
2021/10/08 10:42:17;;;;;;;15.80;5.00;;;;;;;11.21;36.57;101230.70;460391;1190;140921;-62
2021/10/08 10:52:28;;;;;;;10.60;5.50;;;;;;;11.27;37.06;101225.02;460962;1192;143186;-62
2021/10/08 11:02:36;;;;;;;9.00;6.50;;;;;;;11.25;37.23;101230.19;461208;1190;145419;-60
2021/10/08 11:12:43;;;;;;;9.30;5.40;;;;;;;11.16;37.42;101227.90;461569;1190;140114;-62
2021/10/08 11:22:50;;;;;;;11.30;7.50;;;;;;;11.23;37.88;101227.45;462252;1191;141962;-63
2021/10/08 11:32:58;;;;;;;10.00;5.70;;;;;;;11.38;37.97;101219.83;461811;1192;140841;-61
2021/10/08 11:43:07;;;;;;;12.30;7.60;;;;;;;11.51;37.89;101216.31;461839;1192;140941;-64
2021/10/08 11:53:14;;;;;;;8.20;5.90;;;;;;;11.58;37.75;101202.52;461321;1191;140984;-63
2021/10/08 12:03:42;;;;;;;11.00;7.10;;;;;;;11.69;37.22;101204.33;462167;1192;140476;-62
2021/10/08 12:13:51;;;;;;;10.80;6.20;;;;;;;11.72;36.86;101199.81;462407;1191;141385;-59
2021/10/08 12:24:01;;;;;;;12.00;6.40;;;;;;;11.77;36.64;101202.57;461149;1192;141612;-65
2021/10/08 12:34:06;;;;;;;26.80;8.70;;;;;;;11.83;36.72;101196.90;461429;1192;141343;-62
2021/10/08 12:44:19;;;;;;;11.70;6.60;;;;;;;11.92;36.70;101194.75;461110;1192;140864;-57
2021/10/08 12:54:27;;;;;;;13.10;7.30;;;;;;;11.94;36.91;101187.10;468809;1191;141549;-60
2021/10/08 13:04:33;;;;;;;7.50;6.00;;;;;;;11.98;37.14;101190.60;462074;1184;140407;-61
2021/10/08 13:14:39;;;;;;;9.30;6.10;;;;;;;11.93;37.29;101185.41;461984;1191;141231;-59
2021/10/08 13:24:46;;;;;;;12.00;7.20;;;;;;;11.92;37.70;101177.02;468797;1190;140759;-63
2021/10/08 13:34:52;;;;;;;14.20;8.70;;;;;;;11.99;38.01;101172.86;466807;1190;141784;-62
2021/10/08 13:44:58;;;;;;;8.40;6.70;;;;;;;11.98;37.80;101171.30;476267;1190;140537;-60
2021/10/08 13:55:05;;;;;;;8.60;5.60;;;;;;;12.03;37.79;101169.02;477916;1190;141242;-60
2021/10/08 14:05:17;;;;;;;8.40;6.40;;;;;;;12.05;37.65;101167.17;466211;1190;141721;-58
2021/10/08 14:15:25;;;;;;;10.10;5.30;;;;;;;11.97;37.60;101169.95;461327;1190;141412;-57
2021/10/08 14:25:31;;;;;;;11.70;4.60;;;;;;;11.84;37.25;101172.13;477752;1190;141072;-59
2021/10/08 14:35:39;;;;;;;10.30;5.20;;;;;;;11.70;37.21;101162.38;476835;1190;143982;-62
2021/10/08 14:45:45;;;;;;;8.90;4.50;;;;;;;11.58;37.37;101166.89;477717;1190;141028;-60
2021/10/08 14:55:58;;;;;;;7.20;5.30;;;;;;;11.46;37.67;101172.18;477766;1190;141030;-61
2021/10/08 15:06:03;;;;;;;15.00;4.90;;;;;;;11.30;37.91;101174.73;476528;1190;141052;-63
2021/10/08 15:16:10;;;;;;;10.30;4.60;;;;;;;11.09;38.13;101178.56;471100;1190;140754;-59
2021/10/08 15:26:15;;;;;;;8.60;4.20;;;;;;;10.83;38.67;101184.84;472154;1190;150940;-59
2021/10/08 15:36:21;;;;;;;8.10;5.10;;;;;;;10.57;39.25;101193.06;461889;1190;139854;-59
2021/10/08 15:46:27;;;;;;;8.50;5.50;;;;;;;10.26;40.12;101200.64;460687;1192;141489;-61
2021/10/08 15:56:33;;;;;;;10.90;5.20;;;;;;;9.98;41.12;101204.80;460718;1190;145309;-59
2021/10/08 16:06:40;;;;;;;10.90;5.20;;;;;;;9.63;42.27;101213.19;449510;1190;10001370;-59
2021/10/08 16:16:50;;;;;;;12.50;7.60;;;;;;;9.38;43.27;101225.19;462705;1190;140253;-58
2021/10/08 16:26:56;;;;;;;14.90;10.50;;;;;;;9.21;43.94;101238.66;462627;1190;140669;-58
2021/10/08 16:37:02;;;;;;;22.80;12.00;;;;;;;8.81;45.06;101249.33;465636;1190;144065;-59
2021/10/08 16:47:08;;;;;;;12.50;7.40;;;;;;;8.49;45.75;101260.70;466426;1190;140749;-58
2021/10/08 16:57:14;;;;;;;13.90;7.60;;;;;;;8.26;46.26;101270.39;470190;1190;144452;-59
2021/10/08 17:07:20;;;;;;;19.10;8.80;;;;;;;8.06;46.61;101277.38;474759;1191;140819;-59
2021/10/08 17:17:26;;;;;;;12.50;7.20;;;;;;;7.93;47.03;101280.85;477032;1190;140033;-63
2021/10/08 17:27:34;;;;;;;16.30;8.00;;;;;;;7.80;47.14;101280.85;476548;1190;140941;-59
2021/10/08 17:37:39;;;;;;;12.70;7.70;;;;;;;7.64;47.56;101290.30;477030;1192;141127;-59
2021/10/08 17:47:49;;;;;;;17.90;8.70;;;;;;;7.47;48.01;101292.77;475803;1191;140645;-60
2021/10/08 17:57:55;;;;;;;14.30;8.20;;;;;;;7.30;48.52;101294.25;477816;1190;141123;-59
2021/10/08 18:08:01;;;;;;;20.60;8.20;;;;;;;7.17;48.93;101300.08;462618;1190;140884;-57
2021/10/08 18:18:08;;;;;;;13.30;6.70;;;;;;;6.99;49.39;101301.70;476523;1190;141028;-61
2021/10/08 18:28:14;;;;;;;12.70;7.80;;;;;;;6.84;49.71;101309.69;467262;1192;140126;-57
2021/10/08 18:38:20;;;;;;;16.10;7.00;;;;;;;6.81;50.16;101316.36;467742;1190;141785;-57
2021/10/08 18:48:26;;;;;;;13.90;7.90;;;;;;;6.79;50.64;101322.14;467112;1190;139051;-58
2021/10/08 18:58:32;;;;;;;14.30;7.80;;;;;;;6.72;51.05;101336.03;475180;1183;140832;-58
2021/10/08 19:08:40;;;;;;;13.50;8.20;;;;;;;6.68;51.35;101342.56;473937;1190;140940;-58
2021/10/08 19:18:54;;;;;;;;;;;;;;;6.62;51.85;101342.85;470250;1190;140358;-57
2021/10/08 19:29:00;;;;;;;12.80;8.30;;;;;;;6.46;52.22;101342.27;478026;1190;128190;-59
2021/10/08 19:39:06;;;;;;;17.40;10.00;;;;;;;6.35;52.68;101344.73;476815;1190;141502;-58
2021/10/08 19:49:13;;;;;;;19.70;10.10;;;;;;;6.23;52.96;101341.63;468743;1190;140769;-57
2021/10/08 19:59:19;;;;;;;14.60;9.70;;;;;;;6.13;53.15;101340.42;462284;1190;141318;-57
2021/10/08 20:19:49;;;;;;;16.70;9.60;;;;;;;5.90;54.03;101345.83;475266;1190;145089;-59
2021/10/08 20:29:58;;;;;;;15.20;8.90;;;;;;;5.81;54.31;101342.83;460455;1190;141370;-57
2021/10/08 20:40:06;;;;;;;22.20;10.60;;;;;;;5.70;54.94;101342.67;465848;1190;139977;-57
2021/10/08 20:50:12;;;;;;;15.40;9.70;;;;;;;5.54;55.08;101337.85;461147;1190;141391;-55
2021/10/08 21:00:18;;;;;;;16.20;9.70;;;;;;;5.38;55.57;101333.76;462112;1190;193965;-55
2021/10/08 21:10:27;;;;;;;12.80;9.40;;;;;;;5.23;55.92;101343.70;462110;1190;140925;-57
2021/10/08 21:20:35;;;;;;;14.30;9.50;;;;;;;5.09;56.14;101340.24;461244;1187;141328;-57
2021/10/08 21:30:46;;;;;;;10.50;7.50;;;;;;;4.97;56.83;101342.80;469237;1190;140930;-59
2021/10/08 21:40:56;;;;;;;13.50;8.60;;;;;;;4.95;57.13;101343.01;473023;1190;140059;-58
2021/10/08 21:51:05;;;;;;;13.70;7.90;;;;;;;4.92;57.01;101340.27;477076;1190;141914;-62
2021/10/08 22:01:29;;;;;;;12.70;7.80;;;;;;;4.87;57.66;101341.89;461734;1190;10001988;-62
2021/10/08 22:11:36;;;;;;;15.50;10.40;;;;;;;4.82;57.68;101336.73;466423;1190;141751;-61
2021/10/08 22:21:45;;;;;;;10.10;7.80;;;;;;;4.75;57.98;101331.96;464698;1190;140515;-61
2021/10/08 22:42:15;;;;;;;12.00;8.30;;;;;;;4.48;58.77;101333.30;466498;1190;142387;-60
2021/10/08 22:52:22;;;;;;;14.20;8.30;;;;;;;4.45;58.92;101332.83;466212;1190;141575;-60
2021/10/08 23:02:28;;;;;;;14.20;9.10;;;;;;;4.45;59.10;101341.66;461470;1181;145803;-60
2021/10/08 23:12:46;;;;;;;15.20;9.40;;;;;;;4.45;59.23;101340.80;468589;1190;141495;-62
2021/10/08 23:22:52;;;;;;;9.50;7.40;;;;;;;4.36;59.56;101326.32;477877;1190;142097;-62
2021/10/08 23:32:58;;;;;;;12.70;7.60;;;;;;;4.38;59.52;101326.47;476596;1191;140544;-60
2021/10/08 23:43:05;;;;;;;14.20;7.80;;;;;;;4.40;59.73;101327.51;461353;1187;140765;-62
2021/10/08 23:53:12;;;;;;;13.20;8.10;;;;;;;4.29;60.01;101327.08;466329;1190;140124;-60
